createdAt,value
2022-09-15T00:03:39.372Z,4.50
2022-09-15T00:07:06.789Z,4.30
2022-09-15T00:10:35.656Z,4.20
2022-09-15T00:14:08.063Z,4.60
2022-09-15T00:17:36.289Z,4.30
2022-09-15T00:21:09.889Z,4.20
2022-09-15T00:24:37.045Z,5.00
2022-09-15T00:28:04.515Z,4.30
2022-09-15T00:31:32.501Z,3.80
2022-09-15T00:35:00.252Z,4.40
2022-09-15T00:38:27.268Z,4.90
2022-09-15T00:41:58.801Z,4.20
2022-09-15T00:45:27.562Z,4.00
2022-09-15T00:49:01.692Z,4.20
2022-09-15T00:52:34.279Z,3.40
2022-09-15T00:56:05.878Z,3.80
2022-09-15T00:59:40.286Z,3.90
2022-09-15T01:03:07.860Z,4.30
2022-09-15T01:06:40.849Z,3.90
2022-09-15T01:10:13.178Z,3.70
2022-09-15T01:13:40.560Z,4.40
2022-09-15T01:17:16.009Z,3.20
2022-09-15T01:21:15.189Z,4.00
2022-09-15T01:25:04.882Z,3.70
2022-09-15T01:28:59.935Z,3.40
2022-09-15T01:32:51.525Z,3.80
2022-09-15T01:36:23.888Z,4.20
2022-09-15T01:39:54.805Z,3.30
2022-09-15T01:43:24.354Z,3.30
2022-09-15T01:46:56.273Z,3.50
2022-09-15T01:50:27.996Z,3.40
2022-09-15T01:53:55.760Z,3.90
2022-09-15T01:57:23.292Z,4.80
2022-09-15T02:00:57.339Z,4.90
2022-09-15T02:04:30.396Z,4.90
2022-09-15T02:08:05.731Z,4.60
2022-09-15T02:11:33.055Z,5.20
2022-09-15T02:15:09.792Z,6.40
2022-09-15T02:18:44.248Z,5.80
2022-09-15T02:22:17.875Z,4.60
2022-09-15T02:25:48.682Z,5.10
2022-09-15T02:29:21.712Z,5.90
2022-09-15T02:32:54.441Z,5.10
2022-09-15T02:36:22.845Z,5.40
2022-09-15T02:39:53.810Z,5.30
2022-09-15T02:43:26.265Z,5.50
2022-09-15T02:46:53.561Z,5.20
2022-09-15T02:50:20.889Z,5.30
2022-09-15T02:53:47.919Z,5.20
2022-09-15T02:57:15.494Z,4.50
2022-09-15T03:00:42.889Z,5.90
2022-09-15T03:04:10.491Z,5.60
2022-09-15T03:07:40.561Z,6.20
2022-09-15T03:11:07.689Z,6.20
2022-09-15T03:14:35.706Z,5.40
2022-09-15T03:18:05.428Z,5.40
2022-09-15T03:21:33.328Z,6.00
2022-09-15T03:25:00.219Z,5.50
2022-09-15T03:28:28.003Z,5.20
2022-09-15T03:31:54.865Z,5.30
2022-09-15T03:35:21.976Z,4.70
2022-09-15T03:38:51.479Z,4.90
2022-09-15T03:42:19.074Z,4.80
2022-09-15T03:45:46.339Z,4.80
2022-09-15T03:49:13.659Z,4.70
2022-09-15T03:52:40.462Z,4.60
2022-09-15T03:56:21.527Z,4.70
2022-09-15T03:59:48.691Z,5.10
2022-09-15T04:03:16.544Z,4.70
2022-09-15T04:06:43.808Z,4.60
2022-09-15T04:10:13.096Z,4.30
2022-09-15T04:13:42.366Z,4.70
2022-09-15T04:17:11.066Z,4.80
2022-09-15T04:20:39.873Z,5.00
2022-09-15T04:24:07.695Z,4.40
2022-09-15T04:27:36.673Z,4.30
2022-09-15T04:31:09.946Z,4.90
2022-09-15T04:34:41.258Z,5.00
2022-09-15T04:38:08.238Z,4.60
2022-09-15T04:41:35.699Z,5.00
2022-09-15T04:45:02.400Z,4.80
2022-09-15T04:48:29.668Z,4.40
2022-09-15T04:51:56.811Z,4.60
2022-09-15T04:55:24.057Z,4.70
2022-09-15T04:58:53.188Z,4.40
2022-09-15T05:02:19.906Z,4.70
2022-09-15T05:05:49.116Z,4.70
2022-09-15T05:09:17.150Z,5.00
2022-09-15T05:12:44.704Z,5.40
2022-09-15T05:16:14.854Z,4.50
2022-09-15T05:19:41.893Z,4.80
2022-09-15T05:23:09.890Z,4.70
2022-09-15T05:26:40.893Z,5.10
2022-09-15T05:30:35.783Z,5.00
2022-09-15T05:33:57.044Z,5.10
2022-09-15T05:37:24.392Z,4.10
2022-09-15T05:40:51.083Z,4.50
2022-09-15T05:44:17.735Z,4.10
2022-09-15T05:47:44.836Z,4.60
2022-09-15T05:51:11.377Z,4.80
2022-09-15T05:54:38.941Z,4.30
2022-09-15T05:58:06.926Z,4.20
2022-09-15T06:01:35.750Z,4.40
2022-09-15T06:05:03.372Z,4.20
2022-09-15T06:08:33.969Z,4.40
2022-09-15T06:12:00.591Z,4.60
2022-09-15T06:15:27.941Z,4.50
2022-09-15T06:18:55.619Z,4.40
2022-09-15T06:22:22.749Z,5.20
2022-09-15T06:25:51.063Z,4.30
2022-09-15T06:29:18.001Z,4.20
2022-09-15T06:32:48.304Z,4.00
2022-09-15T06:36:16.259Z,3.40
2022-09-15T06:39:43.503Z,3.50
2022-09-15T06:43:10.751Z,3.10
2022-09-15T06:46:41.974Z,3.10
2022-09-15T06:50:09.747Z,2.60
2022-09-15T06:53:38.541Z,2.90
2022-09-15T06:57:05.627Z,2.60
2022-09-15T07:00:32.372Z,2.30
2022-09-15T07:04:00.528Z,2.50
2022-09-15T07:07:28.887Z,2.40
2022-09-15T07:10:57.248Z,2.30
2022-09-15T07:14:27.427Z,2.30
2022-09-15T07:17:54.605Z,2.10
2022-09-15T07:21:22.451Z,2.20
2022-09-15T07:24:49.884Z,1.90
2022-09-15T07:28:17.684Z,2.00
2022-09-15T07:31:44.917Z,1.70
2022-09-15T07:35:14.189Z,1.70
2022-09-15T07:38:43.307Z,2.20
2022-09-15T07:42:10.594Z,1.30
2022-09-15T07:45:37.942Z,1.50
2022-09-15T07:49:06.772Z,1.50
2022-09-15T07:52:33.774Z,1.10
2022-09-15T07:56:09.908Z,1.60
2022-09-15T07:59:41.354Z,1.50
2022-09-15T08:03:08.549Z,1.90
2022-09-15T08:06:35.493Z,1.50
2022-09-15T08:10:01.974Z,1.60
2022-09-15T08:13:30.663Z,1.20
2022-09-15T08:16:58.434Z,1.40
2022-09-15T08:20:25.498Z,1.50
2022-09-15T08:23:56.898Z,1.20
2022-09-15T08:27:24.661Z,1.10
2022-09-15T08:30:51.517Z,1.10
2022-09-15T08:34:19.816Z,1.20
2022-09-15T08:37:47.480Z,1.20
2022-09-15T08:41:20.502Z,1.30
2022-09-15T08:44:53.297Z,1.20
2022-09-15T08:48:24.876Z,1.20
2022-09-15T08:51:54.339Z,1.10
2022-09-15T08:55:36.796Z,1.60
2022-09-15T08:59:05.024Z,1.20
2022-09-15T09:02:55.749Z,1.00
2022-09-15T09:06:36.459Z,1.10
2022-09-15T09:10:13.497Z,1.00
2022-09-15T09:13:47.088Z,1.00
2022-09-15T09:17:32.893Z,0.90
2022-09-15T09:21:15.111Z,0.80
2022-09-15T09:24:45.962Z,1.00
2022-09-15T09:28:30.857Z,1.10
2022-09-15T09:32:02.511Z,1.00
2022-09-15T09:35:37.827Z,1.00
2022-09-15T09:39:09.923Z,0.90
2022-09-15T09:42:38.598Z,0.70
2022-09-15T09:46:14.062Z,1.00
2022-09-15T09:49:44.757Z,1.20
2022-09-15T09:53:31.218Z,1.30
2022-09-15T09:57:18.947Z,1.20
2022-09-15T10:00:47.100Z,1.10
2022-09-15T10:04:21.662Z,0.80
2022-09-15T10:07:49.140Z,1.20
2022-09-15T10:11:16.132Z,0.90
2022-09-15T10:14:45.806Z,0.90
2022-09-15T10:18:32.357Z,0.90
2022-09-15T10:22:00.925Z,0.90
2022-09-15T10:25:57.955Z,0.90
2022-09-15T10:29:27.168Z,0.80
2022-09-15T10:32:54.646Z,0.80
2022-09-15T10:36:26.865Z,1.00
2022-09-15T10:40:00.319Z,1.00
2022-09-15T10:43:46.405Z,0.90
2022-09-15T10:47:26.840Z,0.90
2022-09-15T10:51:06.022Z,0.70
2022-09-15T10:54:51.702Z,0.60
2022-09-15T10:58:35.096Z,0.90
2022-09-15T11:02:25.243Z,1.20
2022-09-15T11:06:08.783Z,1.20
2022-09-15T11:09:41.433Z,1.00
2022-09-15T11:13:21.240Z,1.10
2022-09-15T11:17:04.886Z,0.80
2022-09-15T11:21:01.834Z,0.90
2022-09-15T11:24:38.971Z,1.00
2022-09-15T11:28:14.459Z,1.00
2022-09-15T11:31:43.889Z,1.20
2022-09-15T11:35:42.383Z,0.90
2022-09-15T11:39:17.669Z,0.90
2022-09-15T11:42:50.833Z,1.10
2022-09-15T11:49:56.903Z,0.80
2022-09-15T11:53:32.985Z,0.90
2022-09-15T11:57:02.094Z,0.90
2022-09-15T12:00:30.410Z,0.90
2022-09-15T12:04:02.194Z,0.80
2022-09-15T12:07:34.288Z,0.70
2022-09-15T12:11:07.542Z,0.70
2022-09-15T12:14:37.660Z,0.70
2022-09-15T12:18:37.155Z,1.10
2022-09-15T12:22:11.368Z,1.00
2022-09-15T12:25:52.140Z,0.80
2022-09-15T12:29:49.761Z,0.70
2022-09-15T12:33:55.273Z,0.70
2022-09-15T12:37:22.322Z,0.90
2022-09-15T12:41:03.356Z,0.50
2022-09-15T12:44:37.374Z,0.70
2022-09-15T12:48:10.826Z,0.90
2022-09-15T12:51:37.440Z,0.80
2022-09-15T12:55:06.927Z,0.90
2022-09-15T12:58:38.355Z,0.90
2022-09-15T13:02:05.205Z,1.00
2022-09-15T13:06:15.152Z,0.90
2022-09-15T13:09:59.353Z,0.70
2022-09-15T13:13:33.399Z,0.80
2022-09-15T13:17:09.445Z,1.10
2022-09-15T13:20:41.936Z,0.70
2022-09-15T13:24:44.700Z,0.90
2022-09-15T13:28:19.650Z,0.50
2022-09-15T13:31:55.432Z,0.70
2022-09-15T13:35:44.128Z,0.80
2022-09-15T13:39:32.398Z,0.90
2022-09-15T13:43:24.446Z,0.70
2022-09-15T13:47:03.120Z,0.70
2022-09-15T13:50:35.908Z,0.80
2022-09-15T13:54:10.454Z,0.90
2022-09-15T14:01:35.115Z,0.70
2022-09-15T14:05:04.619Z,0.80
2022-09-15T14:08:35.887Z,0.70
2022-09-15T14:12:09.484Z,0.60
2022-09-15T14:15:38.165Z,0.80
2022-09-15T14:19:34.745Z,1.00
2022-09-15T14:23:02.813Z,0.70
2022-09-15T14:26:34.656Z,0.40
2022-09-15T14:30:06.827Z,0.80
2022-09-15T14:33:39.876Z,1.00
2022-09-15T14:37:08.945Z,0.80
2022-09-15T14:40:39.036Z,0.60
2022-09-15T14:45:55.375Z,0.90
2022-09-15T14:48:11.178Z,1.00
2022-09-15T14:51:43.867Z,0.90
2022-09-15T14:55:24.189Z,1.10
2022-09-15T14:58:58.841Z,0.80
2022-09-15T15:02:35.549Z,1.30
2022-09-15T15:06:29.112Z,0.90
2022-09-15T15:10:14.950Z,0.60
2022-09-15T15:13:47.419Z,0.90
2022-09-15T15:17:34.547Z,0.80
2022-09-15T15:21:29.991Z,0.80
2022-09-15T15:25:02.251Z,0.80
2022-09-15T15:29:26.349Z,0.80
2022-09-15T15:32:57.321Z,0.80
2022-09-15T15:36:37.731Z,0.50
2022-09-15T15:40:19.464Z,0.60
2022-09-15T15:44:08.705Z,0.90
2022-09-15T15:47:42.355Z,0.90
2022-09-15T15:51:10.734Z,0.80
2022-09-15T15:54:42.705Z,1.10
2022-09-15T15:58:12.423Z,1.60
2022-09-15T16:01:39.239Z,1.00
2022-09-15T16:05:06.824Z,1.00
2022-09-15T16:08:40.041Z,0.50
2022-09-15T16:12:09.783Z,0.90
2022-09-15T16:15:37.107Z,0.70
2022-09-15T16:19:04.392Z,1.40
2022-09-15T16:22:34.292Z,1.00
2022-09-15T16:26:14.240Z,0.70
2022-09-15T16:29:44.470Z,1.70
2022-09-15T16:33:16.828Z,1.50
2022-09-15T16:36:46.979Z,2.20
2022-09-15T16:40:18.289Z,3.40
2022-09-15T16:43:45.880Z,4.50
2022-09-15T16:47:17.241Z,1.60
2022-09-15T16:50:55.312Z,1.30
2022-09-15T16:54:30.294Z,1.90
2022-09-15T16:57:58.471Z,1.60
2022-09-15T17:01:26.410Z,2.00
2022-09-15T17:04:53.385Z,1.70
2022-09-15T17:08:22.920Z,2.10
2022-09-15T17:11:50.366Z,1.20
2022-09-15T17:15:32.323Z,1.40
2022-09-15T17:19:00.401Z,1.70
2022-09-15T17:22:27.505Z,2.10
2022-09-15T17:25:58.430Z,1.60
2022-09-15T17:29:25.552Z,1.70
2022-09-15T17:32:52.503Z,2.20
2022-09-15T17:36:20.076Z,2.40
2022-09-15T17:39:53.532Z,2.70
2022-09-15T17:43:26.740Z,2.60
2022-09-15T17:47:01.777Z,2.20
2022-09-15T17:50:33.382Z,2.10
2022-09-15T17:54:00.982Z,2.10
2022-09-15T17:57:27.900Z,1.50
2022-09-15T18:00:55.804Z,1.30
2022-09-15T18:04:23.398Z,1.20
2022-09-15T18:07:50.462Z,1.40
2022-09-15T18:11:19.013Z,1.60
2022-09-15T18:14:45.988Z,1.10
2022-09-15T18:18:16.836Z,1.20
2022-09-15T18:21:43.749Z,1.40
2022-09-15T18:25:18.182Z,1.70
2022-09-15T18:28:47.642Z,1.30
2022-09-15T18:32:16.433Z,1.40
2022-09-15T18:35:47.014Z,1.30
2022-09-15T18:39:14.330Z,1.20
2022-09-15T18:42:44.431Z,1.40
2022-09-15T18:46:11.986Z,1.40
2022-09-15T18:49:40.095Z,1.40
2022-09-15T18:53:10.154Z,2.10
2022-09-15T18:56:37.571Z,2.90
2022-09-15T19:00:09.745Z,2.20
2022-09-15T19:03:43.976Z,2.60
2022-09-15T19:07:13.751Z,2.40
2022-09-15T19:10:44.574Z,3.00
2022-09-15T19:14:12.046Z,3.90
2022-09-15T19:17:40.439Z,4.10
2022-09-15T19:21:14.001Z,3.90
2022-09-15T19:24:41.595Z,3.90
2022-09-15T19:28:09.996Z,3.80
2022-09-15T19:31:41.698Z,4.40
2022-09-15T19:35:11.631Z,3.00
2022-09-15T19:38:41.821Z,3.10
2022-09-15T19:42:09.883Z,3.10
2022-09-15T19:45:37.188Z,3.50
2022-09-15T19:49:05.807Z,3.10
2022-09-15T19:52:33.934Z,3.30
2022-09-15T19:56:02.616Z,3.70
2022-09-15T19:59:32.867Z,3.70
2022-09-15T20:03:00.966Z,4.50
2022-09-15T20:06:32.283Z,4.50
2022-09-15T20:10:05.244Z,4.40
2022-09-15T20:13:33.631Z,3.60
2022-09-15T20:17:02.891Z,3.90
2022-09-15T20:20:29.738Z,4.20
2022-09-15T20:24:00.754Z,3.70
2022-09-15T20:27:27.862Z,4.00
2022-09-15T20:31:04.655Z,3.80
2022-09-15T20:34:31.750Z,3.70
2022-09-15T20:37:58.924Z,3.80
2022-09-15T20:41:28.693Z,3.80
2022-09-15T20:44:59.551Z,3.40
2022-09-15T20:48:26.237Z,3.90
2022-09-15T20:51:54.463Z,3.60
2022-09-15T20:55:21.163Z,4.00
2022-09-15T20:58:48.622Z,4.30
2022-09-15T21:02:15.618Z,4.00
2022-09-15T21:05:49.883Z,4.80
2022-09-15T21:09:17.311Z,5.50
2022-09-15T21:12:44.436Z,5.30
2022-09-15T21:16:12.913Z,5.10
2022-09-15T21:19:43.393Z,5.30
2022-09-15T21:23:13.540Z,4.70
2022-09-15T21:26:56.355Z,4.80
2022-09-15T21:30:23.732Z,4.70
2022-09-15T21:33:51.544Z,5.00
2022-09-15T21:37:20.103Z,4.30
2022-09-15T21:40:51.055Z,4.10
2022-09-15T21:44:18.853Z,3.90
2022-09-15T21:47:48.749Z,3.60
2022-09-15T21:51:23.507Z,3.70
2022-09-15T21:54:52.995Z,3.40
2022-09-15T21:58:25.484Z,2.90
2022-09-15T22:01:55.958Z,3.50
2022-09-15T22:05:26.462Z,2.90
2022-09-15T22:09:00.870Z,2.70
2022-09-15T22:12:29.167Z,2.20
2022-09-15T22:16:07.161Z,2.40
2022-09-15T22:19:35.454Z,2.30
2022-09-15T22:23:10.392Z,2.20
2022-09-15T22:26:39.735Z,2.60
2022-09-15T22:30:21.207Z,3.00
2022-09-15T22:33:59.781Z,2.60
2022-09-15T22:37:34.015Z,2.30
2022-09-15T22:41:07.587Z,2.50
2022-09-15T22:44:36.046Z,2.00
2022-09-15T22:48:10.126Z,1.90
2022-09-15T22:51:40.187Z,1.80
2022-09-15T22:55:24.656Z,2.00
2022-09-15T22:58:53.676Z,1.80
2022-09-15T23:02:20.845Z,1.90
2022-09-15T23:06:00.776Z,1.70
2022-09-15T23:09:31.765Z,2.10
2022-09-15T23:13:00.739Z,1.50
2022-09-15T23:16:29.801Z,1.80
2022-09-15T23:19:57.051Z,1.50
2022-09-15T23:23:24.106Z,1.60
2022-09-15T23:26:51.215Z,1.30
2022-09-15T23:30:18.666Z,1.80
2022-09-15T23:33:46.236Z,1.70
2022-09-15T23:37:12.857Z,1.50
2022-09-15T23:40:42.282Z,1.40
2022-09-15T23:44:10.667Z,1.40
2022-09-15T23:47:37.880Z,1.40
2022-09-15T23:51:05.556Z,1.20
2022-09-15T23:54:32.759Z,1.80
2022-09-15T23:57:59.602Z,1.50
